createdAt,value
2022-10-13T00:03:50.553Z,101165.91
2022-10-13T00:08:54.466Z,101169.68
2022-10-13T00:13:59.449Z,101165.59
2022-10-13T00:19:02.232Z,101163.90
2022-10-13T00:24:04.813Z,101162.69
2022-10-13T00:29:07.711Z,101161.19
2022-10-13T00:34:10.211Z,101167.91
2022-10-13T00:39:12.716Z,101172.39
2022-10-13T00:44:52.883Z,101172.45
2022-10-13T00:49:55.824Z,101172.36
2022-10-13T00:54:59.549Z,101168.58
2022-10-13T01:00:03.385Z,101162.03
2022-10-13T01:05:07.874Z,101159.73
2022-10-13T01:10:10.456Z,101158.27
2022-10-13T01:15:22.520Z,101155.30
2022-10-13T01:21:02.793Z,101155.22
2022-10-13T01:26:20.630Z,101147.48
2022-10-13T01:32:01.667Z,101144.58
2022-10-13T01:37:41.630Z,101143.33
2022-10-13T01:43:03.341Z,101140.77
2022-10-13T01:48:07.326Z,101140.74
2022-10-13T01:53:11.379Z,101142.20
2022-10-13T01:58:13.818Z,101139.77
2022-10-13T02:03:26.393Z,101134.83
2022-10-13T02:08:40.305Z,101136.70
2022-10-13T02:14:24.651Z,101135.63
2022-10-13T02:19:27.588Z,101136.88
2022-10-13T02:24:30.188Z,101140.14
2022-10-13T02:29:32.845Z,101131.65
2022-10-13T02:34:35.253Z,101123.02
2022-10-13T02:39:37.716Z,101121.58
2022-10-13T02:44:40.110Z,101115.97
2022-10-13T02:49:42.740Z,101116.81
2022-10-13T02:54:45.256Z,101113.08
2022-10-13T02:59:47.946Z,101111.88
2022-10-13T03:04:50.791Z,101108.06
2022-10-13T03:09:53.561Z,101104.73
2022-10-13T03:14:56.034Z,101109.00
2022-10-13T03:19:58.499Z,101111.21
2022-10-13T03:25:00.893Z,101112.02
2022-10-13T03:30:03.924Z,101110.03
2022-10-13T03:35:07.478Z,101107.57
2022-10-13T03:40:10.481Z,101107.17
2022-10-13T03:45:12.979Z,101098.63
2022-10-13T03:50:15.633Z,101090.02
2022-10-13T03:55:18.273Z,101090.20
2022-10-13T04:00:20.780Z,101094.36
2022-10-13T04:05:23.193Z,101090.80
2022-10-13T04:10:25.979Z,101093.42
2022-10-13T04:15:28.516Z,101091.91
2022-10-13T04:20:31.039Z,101089.36
2022-10-13T04:25:38.373Z,101092.70
2022-10-13T04:30:43.706Z,101099.39
2022-10-13T04:35:49.536Z,101096.35
2022-10-13T04:40:51.979Z,101097.38
2022-10-13T04:46:00.549Z,101090.48
2022-10-13T04:51:08.157Z,101090.63
2022-10-13T04:56:13.931Z,101090.90
2022-10-13T05:01:22.600Z,101089.94
2022-10-13T05:06:28.376Z,101089.77
2022-10-13T05:11:32.004Z,101091.52
2022-10-13T05:16:34.429Z,101085.94
2022-10-13T05:21:37.029Z,101085.50
2022-10-13T05:26:40.356Z,101083.61
2022-10-13T05:31:42.843Z,101079.73
2022-10-13T05:36:46.517Z,101073.80
2022-10-13T05:41:51.785Z,101071.89
2022-10-13T05:46:54.263Z,101066.66
2022-10-13T05:52:02.263Z,101062.81
2022-10-13T05:57:30.746Z,101066.27
2022-10-13T06:02:40.702Z,101071.38
2022-10-13T06:07:44.403Z,101075.47
2022-10-13T06:12:47.009Z,101081.02
2022-10-13T06:17:49.386Z,101083.33
2022-10-13T06:22:51.832Z,101083.64
2022-10-13T06:27:54.243Z,101081.81
2022-10-13T06:32:56.881Z,101073.58
2022-10-13T06:37:59.712Z,101067.91
2022-10-13T06:43:05.544Z,101061.75
2022-10-13T06:48:11.032Z,101053.85
2022-10-13T06:53:15.020Z,101050.65
2022-10-13T06:58:17.454Z,101050.09
2022-10-13T07:03:20.871Z,101047.17
2022-10-13T07:08:24.022Z,101050.39
2022-10-13T07:13:26.555Z,101051.33
2022-10-13T07:18:29.096Z,101051.88
2022-10-13T07:23:31.515Z,101050.27
2022-10-13T07:28:34.283Z,101044.33
2022-10-13T07:33:36.860Z,101042.49
2022-10-13T07:38:43.635Z,101035.21
2022-10-13T07:43:46.696Z,101026.46
2022-10-13T07:48:49.231Z,101031.36
2022-10-13T07:53:52.300Z,101028.31
2022-10-13T07:58:54.811Z,101023.01
2022-10-13T08:03:57.252Z,101016.05
2022-10-13T08:09:00.546Z,101014.33
2022-10-13T08:14:03.802Z,101010.70
2022-10-13T08:19:06.865Z,101007.62
2022-10-13T08:24:12.560Z,100999.39
2022-10-13T08:29:23.814Z,101000.30
2022-10-13T08:34:26.817Z,100999.92
2022-10-13T08:39:29.806Z,101002.14
2022-10-13T08:50:07.002Z,101002.52
2022-10-13T08:55:20.231Z,101007.86
2022-10-13T09:00:22.861Z,100992.81
2022-10-13T09:05:40.013Z,100976.92
2022-10-13T09:10:51.057Z,100968.14
2022-10-13T09:15:53.945Z,100962.84
2022-10-13T09:21:20.684Z,100953.77
2022-10-13T09:26:25.612Z,100952.08
2022-10-13T09:31:30.458Z,100955.02
2022-10-13T09:36:33.933Z,100947.28
2022-10-13T09:41:36.344Z,100951.20
2022-10-13T09:46:59.148Z,100951.33
2022-10-13T09:52:28.280Z,100939.21
2022-10-13T09:57:51.464Z,100942.77
2022-10-13T10:02:59.815Z,100945.13
2022-10-13T10:08:33.735Z,100940.03
2022-10-13T10:13:47.140Z,100930.70
2022-10-13T10:18:58.909Z,100931.96
2022-10-13T10:24:39.238Z,100921.52
2022-10-13T10:30:20.539Z,100903.48
2022-10-13T10:36:00.943Z,100899.63
2022-10-13T10:41:20.471Z,100893.63
2022-10-13T10:46:25.866Z,100886.20
2022-10-13T10:51:36.657Z,100883.98
2022-10-13T10:56:42.766Z,100887.33
2022-10-13T11:02:14.682Z,100887.77
2022-10-13T11:07:23.237Z,100880.56
2022-10-13T11:12:45.031Z,100873.77
2022-10-13T11:17:47.621Z,100877.27
2022-10-13T11:23:08.656Z,100873.86
2022-10-13T11:28:49.036Z,100863.06
2022-10-13T11:33:54.948Z,100860.64
2022-10-13T11:44:49.872Z,100852.25
2022-10-13T11:50:07.802Z,100850.51
2022-10-13T11:55:37.801Z,100848.48
2022-10-13T12:00:50.366Z,100832.54
2022-10-13T12:05:53.449Z,100827.69
2022-10-13T12:10:58.157Z,100826.46
2022-10-13T12:16:08.239Z,100822.71
2022-10-13T12:21:14.660Z,100808.54
2022-10-13T12:26:24.145Z,100801.53
2022-10-13T12:31:48.949Z,100798.77
2022-10-13T12:36:56.382Z,100792.95
2022-10-13T12:42:02.043Z,100788.79
2022-10-13T12:47:04.838Z,100777.01
2022-10-13T12:52:19.986Z,100772.71
2022-10-13T12:57:38.006Z,100768.73
2022-10-13T13:02:41.373Z,100761.80
2022-10-13T13:07:52.740Z,100764.45
2022-10-13T13:12:56.124Z,100763.14
2022-10-13T13:18:29.374Z,100753.84
2022-10-13T13:23:34.727Z,100747.71
2022-10-13T13:28:38.623Z,100741.27
2022-10-13T13:33:41.260Z,100736.66
2022-10-13T13:38:44.090Z,100736.09
2022-10-13T13:43:46.833Z,100732.77
2022-10-13T13:48:49.763Z,100730.45
2022-10-13T13:53:52.242Z,100723.38
2022-10-13T13:58:54.678Z,100723.31
2022-10-13T14:03:57.100Z,100724.08
2022-10-13T14:08:59.743Z,100724.19
2022-10-13T14:14:02.382Z,100725.09
2022-10-13T14:19:04.847Z,100723.56
2022-10-13T14:24:08.019Z,100720.69
2022-10-13T14:29:10.682Z,100723.72
2022-10-13T14:34:13.377Z,100718.16
2022-10-13T14:39:16.077Z,100717.77
2022-10-13T14:44:18.613Z,100720.02
2022-10-13T14:49:21.058Z,100717.11
2022-10-13T14:54:24.126Z,100710.36
2022-10-13T14:59:26.677Z,100704.19
2022-10-13T15:04:29.090Z,100703.09
2022-10-13T15:09:45.035Z,100705.42
2022-10-13T15:14:54.121Z,100703.32
2022-10-13T15:19:56.506Z,100699.50
2022-10-13T15:24:59.088Z,100689.30
2022-10-13T15:30:01.841Z,100691.31
2022-10-13T15:35:06.209Z,100690.31
2022-10-13T15:40:09.441Z,100684.59
2022-10-13T15:45:12.244Z,100680.91
2022-10-13T15:50:15.119Z,100676.59
2022-10-13T15:55:18.959Z,100675.47
2022-10-13T16:00:21.503Z,100675.56
2022-10-13T16:05:24.840Z,100666.39
2022-10-13T16:10:27.256Z,100667.71
2022-10-13T16:15:30.484Z,100667.06
2022-10-13T16:20:35.204Z,100669.31
2022-10-13T16:25:39.302Z,100661.52
2022-10-13T16:30:43.016Z,100660.59
2022-10-13T16:35:45.464Z,100654.40
2022-10-13T16:40:47.906Z,100651.98
2022-10-13T16:46:12.674Z,100653.50
2022-10-13T16:51:21.745Z,100654.83
2022-10-13T16:56:25.807Z,100654.48
2022-10-13T17:01:30.126Z,100654.88
2022-10-13T17:06:38.632Z,100652.14
2022-10-13T17:11:43.663Z,100653.51
2022-10-13T17:16:46.086Z,100650.13
2022-10-13T17:21:48.895Z,100649.03
2022-10-13T17:26:51.569Z,100644.67
2022-10-13T17:31:54.057Z,100642.92
2022-10-13T17:36:56.548Z,100644.58
2022-10-13T17:41:59.180Z,100641.02
2022-10-13T17:47:01.683Z,100637.61
2022-10-13T17:52:04.230Z,100633.05
2022-10-13T17:57:06.667Z,100637.07
2022-10-13T18:02:09.867Z,100637.10
2022-10-13T18:07:12.456Z,100637.96
2022-10-13T18:12:14.932Z,100639.49
2022-10-13T18:17:17.658Z,100638.66
2022-10-13T18:22:20.296Z,100635.70
2022-10-13T18:27:23.105Z,100636.34
2022-10-13T18:32:25.890Z,100631.91
2022-10-13T18:37:28.504Z,100629.66
2022-10-13T18:42:31.405Z,100628.94
2022-10-13T18:47:34.515Z,100627.01
2022-10-13T18:52:37.054Z,100625.84
2022-10-13T18:57:39.481Z,100616.15
2022-10-13T19:02:41.935Z,100615.67
2022-10-13T19:07:44.463Z,100616.77
2022-10-13T19:12:46.880Z,100612.46
2022-10-13T19:17:49.310Z,100615.19
2022-10-13T19:22:52.757Z,100615.29
2022-10-13T19:27:55.189Z,100611.04
2022-10-13T19:32:57.790Z,100602.83
2022-10-13T19:38:00.240Z,100597.81
2022-10-13T19:43:03.385Z,100593.09
2022-10-13T19:48:05.919Z,100586.69
2022-10-13T19:53:10.251Z,100591.61
2022-10-13T19:58:16.899Z,100590.33
2022-10-13T20:03:19.686Z,100591.46
2022-10-13T20:08:22.396Z,100591.19
2022-10-13T20:13:25.068Z,100593.38
2022-10-13T20:18:27.439Z,100589.40
2022-10-13T20:23:30.523Z,100591.04
2022-10-13T20:28:33.567Z,100591.67
2022-10-13T20:33:36.341Z,100583.59
2022-10-13T20:38:39.364Z,100581.69
2022-10-13T20:43:41.825Z,100573.64
2022-10-13T20:49:09.284Z,100563.61
2022-10-13T20:54:07.769Z,100559.98
2022-10-13T20:59:14.471Z,100554.13
2022-10-13T21:04:17.035Z,100551.14
2022-10-13T21:09:19.508Z,100548.95
2022-10-13T21:14:22.075Z,100549.88
2022-10-13T21:19:24.669Z,100546.02
2022-10-13T21:24:27.422Z,100548.67
2022-10-13T21:29:30.009Z,100548.54
2022-10-13T21:34:32.479Z,100542.55
2022-10-13T21:39:35.370Z,100544.92
2022-10-13T21:44:37.878Z,100543.34
2022-10-13T21:49:40.530Z,100540.30
2022-10-13T21:54:43.013Z,100535.66
2022-10-13T21:59:45.671Z,100528.59
2022-10-13T22:04:49.594Z,100529.34
2022-10-13T22:09:52.228Z,100529.11
2022-10-13T22:14:54.757Z,100525.36
2022-10-13T22:19:57.437Z,100518.71
2022-10-13T22:25:00.405Z,100514.33
2022-10-13T22:30:02.957Z,100512.47
2022-10-13T22:35:05.744Z,100514.67
2022-10-13T22:40:09.036Z,100512.63
2022-10-13T22:45:11.611Z,100510.10
2022-10-13T22:50:14.122Z,100510.14
2022-10-13T22:55:16.990Z,100507.48
2022-10-13T23:00:19.744Z,100511.00
2022-10-13T23:05:22.241Z,100510.77
2022-10-13T23:10:24.760Z,100510.89
2022-10-13T23:15:27.180Z,100509.33
2022-10-13T23:20:29.846Z,100510.81
2022-10-13T23:25:37.415Z,100507.77
2022-10-13T23:30:39.851Z,100501.31
2022-10-13T23:35:42.888Z,100495.50
2022-10-13T23:40:45.459Z,100495.14
2022-10-13T23:45:47.992Z,100491.25
2022-10-13T23:50:50.494Z,100487.36
2022-10-13T23:55:53.177Z,100483.05
